Key West Nas, Boca Chica Field, Airport Key West US
ICAO: KNQX
IATA: NQX
Category: Medium
Scheduled Services: No

Elevation: 6 ft
TransAlt. 18000 ft.

Airport Communications:
APP DEP:119.25
ATIS:27.72
CLNC DEL:121.2
GND:121.7
BASE OPS:33.8
PMSV METRO:34.46
TWR:126.1

KNQX Zoom In..

Runways:

(A) RW 03 length 7002 ft width 150 ft
---- / hdg 34

(B) RW 07 length 10001 ft width 200 ft
---- / hdg 75

(C) RW 13 length 7001 ft width 150 ft
---- / hdg 133

(D) RW 21 length 7002 ft width 150 ft
---- / hdg 214

(E) RW 25 length 10001 ft width 200 ft
---- / hdg 255

(F) RW 31 length 7001 ft width 150 ft
---- / hdg 313

Location; KNQX
Day. 29 / Time. 18.53 Zulu
* Altimeter: 29.97
* Temperature: 27° c. 80.6°f.
* Wind from: 150° Speed 08 kn.
Dewpoint: 21° c.
Visibility: 10 Statute Miles.
Clouds: Scattered 3000 ft.
Clouds: Broken 25000 ft.

KNQX 291853Z 15008KT 10SM SCT030 BKN250 27/21 A2997 RMK AO2 SLP146 T02720206 $

Going to: --> -->


Wind From 150°
Speed 08 kn.

 
 
jpsmedia worldairports.se 2020   terms of use